x

Neah Bay, - 6nm North Of Cape Flattery, Wa (traffic Separation Lighted Buoy) (46087) Wave Buoy

11:50pm - Wed 1st Oct 2014 All times are PDT. -7 hours from GMT.

  • Sig Wave height 4.9ft
  • Swell Direction
  • Peak Period 9s
  • Average Period 8s
  • Wind
    4mph, 7mph gusts
  • Sea Temp 55°f
  • 空気 Temp 55°f
  • Sea Pressure 1023.2mb
  • Neah Bay, - 6nm North Of Cape Flattery, Wa     (traffic Separation Lighted Buoy)
  • Neah Bay, - 6nm North Of Cape Flattery, Wa     (traffic Separation Lighted Buoy)

More Historic Weather Station data

Upgrade to MSW Pro to gain access to the past 30 days of data for over 8000 Wavebouys and Weather Stations around the globe.

Join Pro

Comparision Forecast

View Surf forecast
   
Wed 10/01 11:50pm 5ft 9s 8s 4 7 mph 1023.2mb 55f 55f
11:20pm  -   -   -  2 4 mph 1023.2mb 55f 55f
10:50pm 5ft 9s 7s 2
mph
1023mb 55f 56f
10:20pm  -   -   -  2 4 mph 1022.9mb 55f 56f
9:50pm 5ft 9s 7s 4
mph
1022.8mb 55f 56f
9:20pm  -   -   -  2 4 mph 1022.7mb 56f 56f
8:50pm 4.5ft 9s 7s 2 4 mph 1022.6mb 56f 56f
8:20pm  -   -   -  2 4 mph 1022.5mb 56f 56f
7:50pm 4ft 9s 7s 4 7 mph 1022.2mb 56f 57f
7:20pm  -   -   -  7 9 mph 1022.1mb 56f 57f
6:50pm 4ft 9s 7s 7 9 mph 1021.9mb 56f 57f
6:20pm  -   -   -  7 9 mph 1022.1mb 57f 57f
5:50pm 4ft 9s 7s 9 11 mph 1022.2mb 58f 57f
5:20pm  -   -   -  9 11 mph 1022.4mb 58f 58f
4:50pm 3.5ft 10s 7s 7 9 mph 1022.4mb 58f 58f
3:50pm 4ft 8s 7s 9 13 mph 1022.7mb 57f 58f
3:20pm  -   -   -  7 11 mph 1022.6mb 56f 57f
2:50pm 5ft 9s 7s 9 11 mph 1022.6mb 56f 57f
2:20pm  -   -   -  9 11 mph 1022.7mb 56f 57f
1:50pm 5ft 10s 7s 9 11 mph 1023mb 56f 56f
1:20pm  -   -   -  9 11 mph 1023mb 56f 56f
12:50pm 6ft 10s 7s 9
mph
1023mb 56f 56f
12:20pm  -   -   -  7 11 mph 1022.8mb 55f 56f
11:50am 6ft 10s 7s 2 4 mph 1023mb 55f 56f
11:20am  -   -   -  7
mph
1023mb 54f 55f
10:50am 7ft 10s 7s 7
mph
1023.1mb 54f 55f
10:20am  -   -   -  7
mph
1023.2mb 54f 55f
9:50am 7ft 9s 7s 4 7 mph 1023mb 54f 55f
9:20am  -   -   -   -  2 mph 1022.9mb 54f 56f
8:50am 7ft 9s 7s  -  4 mph 1022.9mb 54f 55f
8:20am  -   -   -   -  2 mph 1022.7mb 54f 55f
7:50am 8ft 10s 7s  -  2 mph 1022.5mb 54f 55f
7:20am  -   -   -   -  2 mph 1022.5mb 54f 55f
6:50am 7ft 10s 7s  -  4 mph 1022.3mb 54f 55f
6:20am  -   -   -  2 4 mph 1022.2mb 54f 55f
5:50am 8ft 10s 7s 4 7 mph 1022mb 55f 55f
5:20am  -   -   -  2 4 mph 1022.1mb 55f 55f
4:50am 8ft 10s 8s  -  2 mph 1022.1mb 55f 56f
4:20am  -   -   -   -  2 mph 1022mb 55f 56f
3:50am 8ft 10s 7s 2 4 mph 1021.9mb 55f 55f
3:20am  -   -   -  2 4 mph 1021.9mb 55f 55f
2:50am 8ft 10s 8s 2 4 mph 1021.9mb 55f 55f
2:20am  -   -   -  7 11 mph 1021.8mb 55f 56f
1:50am 7.5ft 10s 7s 9 13 mph 1021.7mb 55f 56f
1:20am  -   -   -  4 9 mph 1021.5mb 55f 55f
12:50am 8ft 11s 8s 7 9 mph 1021.4mb 55f 56f
12:20am  -   -   -  7 9 mph 1021.2mb 55f 56f
Tue 09/30 11:50pm 8ft 11s 8s 7 9 mph 1021.2mb 55f 56f
11:20pm  -   -   -  7 9 mph 1021.2mb 55f 56f
10:50pm 8ft 11s 7s 7 9 mph 1021mb 55f 56f
10:20pm  -   -   -  7 9 mph 1020.9mb 55f 56f
9:50pm 9ft 11s 8s 9 11 mph 1021.1mb 55f 56f
9:20pm  -   -   -  13 16 mph 1020.8mb 55f 57f
8:50pm 9ft 11s 7s 11 16 mph 1020.5mb 55f 57f
8:20pm  -   -   -  11 16 mph 1020.3mb 55f 57f
7:50pm 9ft 11s 8s 13 18 mph 1020.2mb 55f 57f
7:20pm  -   -   -  13 18 mph 1020.1mb 55f 57f
6:50pm 10ft 11s 8s 16 18 mph 1019.9mb 56f 57f
6:20pm  -   -   -  11 13 mph 1019.8mb 56f 57f
5:50pm 10ft 11s 8s 9 13 mph 1019.9mb 56f 58f
5:20pm  -   -   -  7 9 mph 1019.8mb 56f 58f
4:50pm 9ft 10s 8s 9 11 mph 1019.8mb 56f 57f
3:50pm 10ft 11s 8s 7 11 mph 1019.7mb 56f 57f
3:20pm  -   -   -  7 9 mph 1019.7mb 56f 57f
2:50pm 9ft 11s 9s 7 9 mph 1019.9mb 56f 57f
2:20pm  -   -   -  9 11 mph 1019.9mb 56f 57f
1:50pm 10ft 11s 9s 9 11 mph 1019.9mb 56f 57f
1:20pm  -   -   -  9 11 mph 1019.8mb 55f 57f
12:50pm 8.5ft 11s 8s 9 13 mph 1019.8mb 55f 57f
12:20pm  -   -   -  7 11 mph 1019.6mb 56f 57f
11:50am 8.5ft 11s 8s 9 11 mph 1019.4mb 56f 57f
11:20am  -   -   -  11 13 mph 1019.2mb 56f 57f
10:50am 7.5ft 11s 8s 9 13 mph 1019mb 56f 57f
10:20am  -   -   -  7 9 mph 1018.8mb 56f 56f
9:50am 7.5ft 10s 8s 7 9 mph 1018.6mb 56f 56f
9:20am  -   -   -  9 11 mph 1018.4mb 56f 57f
8:50am 7ft 10s 7s 7 9 mph 1018.2mb 55f 56f
8:20am  -   -   -  4 7 mph 1018.1mb 55f 56f
7:50am 7ft 11s 8s 9 11 mph 1017.8mb 55f 56f
7:20am  -   -   -  9 11 mph 1017.4mb 55f 56f
6:50am 7ft 11s 7s 11
mph
1017.2mb 55f 56f
6:20am  -   -   -  11 13 mph 1017mb 55f 56f
5:50am 6ft 11s 7s 11 13 mph 1016.8mb 55f 56f
5:20am  -   -   -  11 13 mph 1016.7mb 55f 56f
4:50am 7ft 10s 7s 11 13 mph 1016.5mb 55f 56f
4:20am  -   -   -  11 13 mph 1016.4mb 55f 56f
3:50am 6.5ft 10s 7s 13
mph
1016.2mb 55f 56f
3:20am  -   -   -  9 11 mph 1016mb 55f 56f
2:50am 6.5ft 9s 7s 9 11 mph 1015.9mb 55f 56f
2:20am  -   -   -  9 11 mph 1015.8mb 56f 56f
1:50am 7ft 10s 7s 13
mph
1015.5mb 54f 56f
12:50am 7ft 11s 8s 11 13 mph 1015.2mb 56f 56f
12:20am  -   -   -  9 11 mph 1015.1mb 54f 56f
Mon 09/29 11:50pm 6.5ft 11s 8s 9 11 mph 1015.1mb 53f 56f
11:20pm  -   -   -  11 13 mph 1014.9mb 53f 56f
10:50pm 6ft 10s 8s 11 13 mph 1014.8mb 53f 57f
10:20pm  -   -   -  11 13 mph 1014.8mb 55f 57f
9:50pm 6ft 11s 7s 11 13 mph 1014.6mb 55f 57f
9:20pm  -   -   -  11 13 mph 1014.4mb 56f 58f
8:50pm 6.5ft 11s 7s 11 13 mph 1014.1mb 56f 58f
8:20pm  -   -   -  16 18 mph 1013.8mb 56f 58f
7:50pm 6ft 11s 7s 16 18 mph 1013.5mb 57f 58f
7:20pm  -   -   -  13 16 mph 1013.2mb 57f 58f
6:50pm 6ft 11s 7s 13 16 mph 1012.9mb 57f 58f
6:20pm  -   -   -  13 16 mph 1012.8mb 57f 58f
5:50pm 6ft 11s 7s 13 16 mph 1012.6mb 57f 59f
5:20pm  -   -   -  16 18 mph 1012.3mb 57f 59f
4:50pm 6ft 11s 7s 16 18 mph 1012.2mb 57f 59f
4:20pm  -   -   -  16 18 mph 1012.1mb 58f 59f
3:50pm 6ft 11s 7s 16 18 mph 1012mb 58f 59f
3:20pm  -   -   -  16 20 mph 1011.9mb 58f 59f
2:50pm 5ft 11s 7s 16 20 mph 1011.7mb 58f 58f
2:20pm  -   -   -  16 18 mph 1011.7mb 58f 59f
1:50pm 6ft 11s 7s 16 18 mph 1011.7mb 58f 58f
1:20pm  -   -   -  13 16 mph 1011.8mb 58f 58f
12:50pm 6ft 10s 8s 16 20 mph 1011.6mb 58f 58f
12:20pm  -   -   -  16 18 mph 1011.5mb 58f 58f
11:50am 6ft 10s 7s 11 13 mph 1011.4mb 57f 58f
11:20am  -   -   -  16 20 mph 1011.2mb 57f 58f
10:50am 6.5ft 10s 8s 20 25 mph 1011.1mb 57f 58f
10:20am  -   -   -  2 7 mph 1011.2mb 57f 56f
9:50am 6ft 12s 8s 9 13 mph 1011mb 57f 56f
9:20am  -   -   -  9 11 mph 1010.9mb 57f 56f
8:50am 7ft 13s 9s 11 13 mph 1010.9mb 57f 55f
8:20am  -   -   -  7 11 mph 1011.1mb 55f 55f
7:50am 6ft 13s 9s 7 11 mph 1011.3mb 54f 55f
7:20am  -   -   -  9 11 mph 1011.2mb 55f 55f
6:50am 5ft 10s 8s 7 11 mph 1011.3mb 55f 54f
6:20am  -   -   -  4 7 mph 1011.4mb 54f 54f
5:50am 4.5ft 10s 7s 4 7 mph 1011.3mb 54f 55f
5:20am  -   -   -  7 9 mph 1011.2mb 54f 55f
4:50am 4.5ft 9s 7s 4 9 mph 1011.6mb 54f 56f
4:20am  -   -   -  2 4 mph 1011.8mb 54f 57f
3:50am 4ft 9s 7s 2
mph
1012.2mb 54f 57f
3:20am  -   -   -  4 7 mph 1012.3mb 54f 57f
2:50am 3.5ft 8s 7s 7 9 mph 1012.5mb 55f 57f
2:20am  -   -   -  7
mph
1012.3mb 55f 58f
1:50am 3.5ft 7s 7s 7 9 mph 1012.2mb 56f 58f
1:20am  -   -   -  7
mph
1012.3mb 56f 58f
12:50am 3.5ft 8s 7s 4 7 mph 1012.5mb 57f 58f
12:20am  -   -   -  4 7 mph 1012.8mb 57f 58f
Sun 09/28 11:50pm 3ft 7s 7s 7 9 mph 1012.8mb 57f 58f
11:20pm  -   -   -  7 9 mph 1013.1mb 57f 58f
10:50pm 2.5ft 7s 6s 9 13 mph 1013.2mb 57f 58f
10:20pm  -   -   -  9
mph
1013mb 58f 58f
9:50pm 2.5ft 8s 6s 9 11 mph 1013.3mb 59f 58f
9:20pm  -   -   -  7 11 mph 1013.5mb 59f 58f
8:50pm 2.5ft 7s 6s 9 11 mph 1013.4mb 59f 58f
8:20pm  -   -   -  9 11 mph 1013.7mb 59f 59f
7:50pm 2.5ft 8s 6s 9
mph
1013.5mb 59f 58f
7:20pm  -   -   -  4 7 mph 1013.6mb 59f 58f
6:50pm 3ft 8s 6s 4 7 mph 1013.9mb 59f 58f
6:20pm  -   -   -  4
mph
1014.2mb 59f 59f
5:50pm 3ft 8s 6s 11
mph
1014.4mb 59f 59f
5:20pm  -   -   -  7 9 mph 1014.3mb 60f 59f
4:50pm 2.5ft 7s 6s 4 7 mph 1014.6mb 60f 59f
4:20pm  -   -   -  2 4 mph 1014.6mb 60f 59f
3:50pm 3ft 7s 6s  -  2 mph 1014.9mb 60f 60f
3:20pm  -   -   -  4
mph
1015.1mb 59f 58f
2:50pm 3.5ft 7s 7s 4 7 mph 1015.2mb 59f 58f
2:20pm  -   -   -  7 9 mph 1015.3mb 59f 58f
1:50pm 2.5ft 7s 7s 7 9 mph 1015.5mb 59f 58f
1:20pm  -   -   -  7 9 mph 1015.7mb 59f 57f
12:50pm 3ft 8s 7s 7 9 mph 1015.9mb 59f 56f
12:20pm  -   -   -  7 9 mph 1016.3mb 59f 56f
11:50am 2.5ft 8s 7s 9
mph
1016.4mb 58f 56f
11:20am  -   -   -  9
mph
1016.8mb 58f 55f
10:50am 2.5ft 8s 7s 9
mph
1017.1mb 58f 55f
10:20am  -   -   -  9
mph
1017.2mb 58f 54f
9:50am 3.5ft 8s 6s 9 11 mph 1017.4mb 58f 54f
9:20am  -   -   -  9 11 mph 1017.5mb 58f 54f
8:50am 3ft 8s 7s 9 11 mph 1017.6mb 58f 55f
8:20am  -   -   -  11 13 mph 1017.5mb 58f 53f
7:50am 2.5ft 8s 6s 11 13 mph 1017.6mb 58f 52f